createdAt,value
2024-03-05T00:03:57.506Z,4.83
2024-03-05T00:09:01.466Z,3.70
2024-03-05T00:14:05.365Z,3.60
2024-03-05T00:19:10.620Z,3.80
2024-03-05T00:24:14.311Z,3.57
2024-03-05T00:29:17.909Z,3.80
2024-03-05T00:34:22.861Z,3.20
2024-03-05T00:39:26.468Z,3.93
2024-03-05T00:44:30.414Z,4.30
2024-03-05T00:49:35.381Z,3.20
2024-03-05T00:54:40.385Z,3.83
2024-03-05T00:59:46.056Z,4.00
2024-03-05T01:04:51.640Z,3.83
2024-03-05T01:09:55.594Z,4.50
2024-03-05T01:14:59.293Z,3.93
2024-03-05T01:20:05.405Z,3.73
2024-03-05T01:25:09.929Z,3.90
2024-03-05T01:30:15.038Z,4.43
2024-03-05T01:35:22.434Z,4.07
2024-03-05T01:40:26.164Z,4.00
2024-03-05T01:45:29.813Z,4.50
2024-03-05T01:50:37.101Z,4.63
2024-03-05T01:55:41.959Z,4.77
2024-03-05T02:00:46.109Z,4.13
2024-03-05T02:05:55.374Z,4.00
2024-03-05T02:10:59.269Z,4.93
2024-03-05T02:16:03.207Z,6.93
2024-03-05T02:21:08.735Z,5.57
2024-03-05T02:26:12.936Z,4.40
2024-03-05T02:31:17.099Z,4.40
2024-03-05T02:36:22.974Z,4.63
2024-03-05T02:41:26.632Z,4.53
2024-03-05T02:46:30.927Z,4.67
2024-03-05T02:51:35.884Z,4.33
2024-03-05T02:56:39.617Z,7.70
2024-03-05T03:01:48.575Z,9.77
2024-03-05T03:06:53.649Z,8.47
2024-03-05T03:11:58.069Z,7.90
2024-03-05T03:17:01.728Z,6.87
2024-03-05T03:22:07.432Z,7.50
2024-03-05T03:27:12.253Z,6.40
2024-03-05T03:32:15.920Z,6.90
2024-03-05T03:37:20.956Z,7.60
2024-03-05T03:42:24.717Z,7.97
2024-03-05T03:47:28.317Z,6.60
2024-03-05T03:52:34.051Z,5.60
2024-03-05T03:57:38.444Z,5.73
2024-03-05T04:02:42.084Z,6.53
2024-03-05T04:07:47.938Z,7.60
2024-03-05T04:12:51.600Z,6.07
2024-03-05T04:17:55.531Z,7.63
2024-03-05T04:23:00.575Z,7.83
2024-03-05T04:28:11.860Z,5.50
2024-03-05T04:33:17.023Z,6.23
2024-03-05T04:38:22.434Z,7.53
2024-03-05T04:43:26.147Z,7.70
2024-03-05T04:48:29.833Z,7.40
2024-03-05T04:53:37.154Z,6.27
2024-03-05T04:58:41.124Z,5.60
2024-03-05T05:03:45.239Z,6.10
2024-03-05T05:08:50.540Z,7.40
2024-03-05T05:13:54.245Z,7.83
2024-03-05T05:18:57.757Z,8.50
2024-03-05T05:24:02.713Z,8.07
2024-03-05T05:29:06.299Z,6.77
2024-03-05T05:34:09.859Z,6.10
2024-03-05T05:39:16.142Z,7.27
2024-03-05T05:44:19.779Z,9.13
2024-03-05T05:49:24.302Z,7.43
2024-03-05T05:54:30.386Z,7.07
2024-03-05T05:59:34.652Z,5.43
2024-03-05T06:04:38.290Z,6.23
2024-03-05T06:09:43.351Z,6.20
2024-03-05T06:14:46.891Z,6.47
2024-03-05T06:19:51.822Z,5.33
2024-03-05T06:24:56.787Z,5.87
2024-03-05T06:30:00.593Z,5.37
2024-03-05T06:35:04.233Z,7.63
2024-03-05T06:40:11.275Z,7.03
2024-03-05T06:45:16.193Z,7.03
2024-03-05T06:50:23.108Z,6.13
2024-03-05T06:55:45.404Z,6.23
2024-03-05T07:00:49.070Z,5.67
2024-03-05T07:05:52.722Z,6.27
2024-03-05T07:10:58.270Z,6.77
2024-03-05T07:16:01.919Z,7.27
2024-03-05T07:21:06.217Z,7.00
2024-03-05T07:26:11.851Z,5.40
2024-03-05T07:31:17.919Z,5.97
2024-03-05T07:36:22.873Z,6.07
2024-03-05T07:41:33.894Z,5.57
2024-03-05T07:46:38.917Z,6.40
2024-03-05T07:51:45.400Z,5.20
2024-03-05T07:57:07.174Z,5.63
2024-03-05T08:02:14.633Z,6.00
2024-03-05T08:07:18.342Z,6.63
2024-03-05T08:12:23.259Z,6.40
2024-03-05T08:17:26.855Z,6.33
2024-03-05T08:22:30.660Z,8.07
2024-03-05T08:27:35.684Z,6.50
2024-03-05T08:32:39.927Z,6.90
2024-03-05T08:37:44.498Z,6.97
2024-03-05T08:42:52.472Z,6.37
2024-03-05T08:47:56.713Z,7.00
2024-03-05T08:53:02.085Z,6.33
2024-03-05T08:58:10.555Z,10.03
2024-03-05T09:03:17.347Z,12.83
2024-03-05T09:08:21.207Z,9.37
2024-03-05T09:13:26.168Z,8.63
2024-03-05T09:18:30.311Z,8.43
2024-03-05T09:23:33.987Z,8.77
2024-03-05T09:28:39.628Z,6.97
2024-03-05T09:33:43.255Z,6.40
2024-03-05T09:38:46.824Z,5.23
2024-03-05T09:43:55.484Z,6.13
2024-03-05T09:49:07.433Z,8.80
2024-03-05T09:54:15.345Z,7.37
2024-03-05T09:59:20.902Z,5.70
2024-03-05T10:04:27.891Z,6.00
2024-03-05T10:09:32.764Z,6.23
2024-03-05T10:14:37.765Z,5.20
2024-03-05T10:19:45.615Z,5.53
2024-03-05T10:24:52.225Z,5.93
2024-03-05T10:29:57.284Z,5.03
2024-03-05T10:35:02.315Z,6.67
2024-03-05T10:40:09.773Z,4.60
2024-03-05T10:45:15.719Z,5.50
2024-03-05T10:50:21.651Z,7.47
2024-03-05T10:55:26.839Z,6.87
2024-03-05T11:00:36.886Z,8.00
2024-03-05T11:05:45.311Z,6.67
2024-03-05T11:10:52.893Z,5.70
2024-03-05T11:15:58.462Z,5.40
2024-03-05T11:21:06.436Z,5.90
2024-03-05T11:26:19.492Z,5.13
2024-03-05T11:31:30.289Z,5.37
2024-03-05T11:36:35.766Z,4.60
2024-03-05T11:41:44.914Z,4.67
2024-03-05T11:46:54.583Z,4.17
2024-03-05T11:52:04.374Z,4.23
2024-03-05T11:57:08.922Z,4.07
2024-03-05T12:02:16.494Z,3.93
2024-03-05T12:07:20.393Z,4.93
2024-03-05T12:12:25.072Z,4.63
2024-03-05T12:17:30.841Z,4.37
2024-03-05T12:22:34.565Z,4.77
2024-03-05T12:27:39.522Z,3.50
2024-03-05T12:32:45.617Z,3.77
2024-03-05T12:37:51.495Z,3.67
2024-03-05T12:42:55.137Z,4.33
2024-03-05T12:48:02.375Z,3.80
2024-03-05T12:53:09.544Z,4.10
2024-03-05T12:58:14.539Z,3.27
2024-03-05T13:03:21.405Z,3.97
2024-03-05T13:08:25.468Z,3.13
2024-03-05T13:13:29.074Z,3.20
2024-03-05T13:18:34.066Z,3.10
2024-03-05T13:23:37.637Z,3.23
2024-03-05T13:28:41.384Z,2.80
2024-03-05T13:33:46.376Z,2.83
2024-03-05T13:38:50.039Z,2.93
2024-03-05T13:43:53.669Z,2.50
2024-03-05T13:48:59.556Z,2.60
2024-03-05T13:54:03.992Z,2.53
2024-03-05T13:59:11.191Z,2.33
2024-03-05T14:04:16.445Z,2.47
2024-03-05T14:09:21.519Z,2.97
2024-03-05T14:14:25.475Z,2.50
2024-03-05T14:19:30.774Z,2.57
2024-03-05T14:24:34.609Z,3.40
2024-03-05T14:29:41.121Z,3.03
2024-03-05T14:34:46.144Z,2.80
2024-03-05T14:39:49.775Z,2.70
2024-03-05T14:44:53.675Z,2.80
2024-03-05T14:49:58.896Z,2.13
2024-03-05T14:55:02.826Z,2.20
2024-03-05T15:00:14.005Z,1.70
2024-03-05T15:05:20.262Z,1.77
2024-03-05T15:10:29.206Z,1.93
2024-03-05T15:15:32.974Z,2.00
2024-03-05T15:20:38.104Z,1.87
2024-03-05T15:25:41.875Z,2.07
2024-03-05T15:30:45.732Z,1.70
2024-03-05T15:35:50.754Z,1.90
2024-03-05T15:40:55.355Z,1.67
2024-03-05T15:45:59.223Z,1.97
2024-03-05T15:51:04.694Z,1.73
2024-03-05T15:56:15.676Z,1.97
2024-03-05T16:01:20.582Z,1.83
2024-03-05T16:06:27.838Z,1.90
2024-03-05T16:11:42.380Z,2.07
2024-03-05T16:17:04.737Z,1.90
2024-03-05T16:22:13.809Z,2.00
2024-03-05T16:27:24.149Z,1.80
2024-03-05T16:32:33.526Z,2.40
2024-03-05T16:37:59.415Z,1.73
2024-03-05T16:43:12.113Z,2.03
2024-03-05T16:48:20.833Z,2.50
2024-03-05T16:53:37.661Z,3.77
2024-03-05T16:58:49.647Z,4.13
2024-03-05T17:03:56.920Z,3.53
2024-03-05T17:09:08.526Z,4.60
2024-03-05T17:14:12.485Z,3.60
2024-03-05T17:19:16.171Z,4.23
2024-03-05T17:24:21.284Z,4.73
2024-03-05T17:29:25.718Z,4.00
2024-03-05T17:34:30.084Z,4.60
2024-03-05T17:39:35.355Z,3.70
2024-03-05T17:44:39.266Z,4.10
2024-03-05T17:49:43.219Z,3.90
2024-03-05T17:54:48.270Z,2.90
2024-03-05T17:59:54.950Z,3.13
2024-03-05T18:04:58.892Z,2.50
2024-03-05T18:10:06.101Z,3.73
2024-03-05T18:15:17.257Z,3.67
2024-03-05T18:20:22.377Z,3.20
2024-03-05T18:25:36.022Z,3.37
2024-03-05T18:30:43.659Z,3.37
2024-03-05T18:35:47.657Z,3.07
2024-03-05T18:40:53.836Z,3.70
2024-03-05T18:45:58.437Z,2.87
2024-03-05T18:51:03.409Z,2.40
2024-03-05T18:56:09.043Z,2.63
2024-03-05T19:01:15.434Z,2.47
2024-03-05T19:06:24.037Z,2.13
2024-03-05T19:11:29.904Z,2.53
2024-03-05T19:16:33.763Z,3.00
2024-03-05T19:21:38.415Z,2.77
2024-03-05T19:26:44.557Z,2.70
2024-03-05T19:31:48.926Z,3.13
2024-03-05T19:36:53.391Z,3.27
2024-03-05T19:41:58.912Z,2.60
2024-03-05T19:47:03.533Z,2.53
2024-03-05T19:52:11.894Z,2.50
2024-03-05T19:57:17.334Z,2.33
2024-03-05T20:02:22.476Z,2.33
2024-03-05T20:07:26.955Z,2.60
2024-03-05T20:12:32.242Z,2.60
2024-03-05T20:17:36.285Z,2.70
2024-03-05T20:22:43.253Z,2.93
2024-03-05T20:27:51.398Z,3.23
2024-03-05T20:32:55.646Z,4.70
2024-03-05T20:38:02.032Z,4.10
2024-03-05T20:43:10.406Z,3.87
2024-03-05T20:48:14.327Z,4.80
2024-03-05T20:53:18.371Z,4.50
2024-03-05T20:58:23.909Z,4.00
2024-03-05T21:03:31.392Z,3.97
2024-03-05T21:08:35.714Z,3.13
2024-03-05T21:13:43.535Z,3.20
2024-03-05T21:18:47.909Z,2.93
2024-03-05T21:23:51.698Z,3.23
2024-03-05T21:28:57.173Z,3.50
2024-03-05T21:34:01.121Z,3.47
2024-03-05T21:39:04.926Z,3.30
2024-03-05T21:44:10.325Z,3.00
2024-03-05T21:49:14.234Z,3.23
2024-03-05T21:54:22.849Z,2.80
2024-03-05T21:59:28.091Z,2.77
2024-03-05T22:04:31.749Z,2.97
2024-03-05T22:09:35.423Z,3.00
2024-03-05T22:14:43.448Z,3.77
2024-03-05T22:19:47.235Z,3.60
2024-03-05T22:24:52.212Z,3.73
2024-03-05T22:29:57.272Z,3.57
2024-03-05T22:35:01.014Z,3.10
2024-03-05T22:40:05.717Z,3.67
2024-03-05T22:45:11.657Z,4.40
2024-03-05T22:50:15.767Z,4.20
2024-03-05T22:55:20.502Z,3.83
2024-03-05T23:00:37.310Z,3.80
2024-03-05T23:05:41.100Z,3.43
2024-03-05T23:10:44.994Z,3.53
2024-03-05T23:15:50.159Z,3.73
2024-03-05T23:20:55.164Z,3.07
2024-03-05T23:25:58.904Z,3.27
2024-03-05T23:31:05.147Z,3.13
2024-03-05T23:36:09.458Z,3.20
2024-03-05T23:41:20.364Z,3.30
2024-03-05T23:46:30.223Z,3.37
2024-03-05T23:51:33.951Z,4.43
2024-03-05T23:56:39.006Z,5.30
